createdAt,value
2019-01-09T00:01:10.868Z,2.40
2019-01-09T00:03:41.138Z,2.40
2019-01-09T00:06:11.480Z,2.40
2019-01-09T00:08:41.836Z,2.40
2019-01-09T00:11:12.192Z,2.50
2019-01-09T00:13:42.552Z,2.50
2019-01-09T00:16:12.901Z,2.40
2019-01-09T00:18:43.437Z,2.40
2019-01-09T00:21:13.777Z,2.50
2019-01-09T00:23:44.124Z,2.50
2019-01-09T00:26:14.390Z,2.50
2019-01-09T00:28:44.742Z,2.50
2019-01-09T00:31:15.344Z,2.50
2019-01-09T00:33:45.793Z,2.50
2019-01-09T00:36:16.085Z,2.50
2019-01-09T00:38:46.348Z,2.50
2019-01-09T00:41:16.696Z,2.50
2019-01-09T00:43:47.060Z,2.50
2019-01-09T00:46:17.252Z,2.50
2019-01-09T00:48:47.532Z,2.40
2019-01-09T00:51:17.917Z,2.50
2019-01-09T00:53:48.271Z,2.50
2019-01-09T00:56:18.536Z,2.50
2019-01-09T00:58:48.899Z,2.50
2019-01-09T01:01:19.336Z,2.50
2019-01-09T01:04:11.562Z,2.50
2019-01-09T01:07:04.190Z,2.40
2019-01-09T01:09:57.200Z,2.40
2019-01-09T01:12:36.612Z,2.40
2019-01-09T01:15:21.941Z,2.40
2019-01-09T01:18:16.740Z,2.40
2019-01-09T01:20:52.821Z,2.40
2019-01-09T01:23:49.164Z,2.40
2019-01-09T01:26:28.172Z,2.40
2019-01-09T01:29:19.645Z,2.40
2019-01-09T01:31:55.541Z,2.40
2019-01-09T01:34:31.312Z,2.40
2019-01-09T01:37:31.656Z,2.40
2019-01-09T01:40:33.345Z,2.40
2019-01-09T01:43:24.588Z,2.40
2019-01-09T01:46:06.688Z,2.40
2019-01-09T01:48:51.852Z,2.40
2019-01-09T01:51:42.824Z,2.40
2019-01-09T01:54:27.764Z,2.40
2019-01-09T01:57:19.240Z,2.40
2019-01-09T02:00:09.717Z,2.40
2019-01-09T02:02:54.854Z,2.50
2019-01-09T02:05:30.908Z,2.50
2019-01-09T02:08:06.741Z,2.40
2019-01-09T02:10:56.302Z,2.40
2019-01-09T02:13:38.016Z,2.40
2019-01-09T02:16:16.692Z,2.40
2019-01-09T02:18:52.614Z,2.40
2019-01-09T02:21:34.300Z,2.40
2019-01-09T02:24:07.547Z,2.40
2019-01-09T02:26:40.816Z,2.40
2019-01-09T02:29:14.187Z,2.40
2019-01-09T02:32:15.844Z,2.40
2019-01-09T02:34:46.084Z,2.40
2019-01-09T02:37:16.361Z,2.40
2019-01-09T02:39:46.484Z,2.40
2019-01-09T02:42:16.613Z,2.50
2019-01-09T02:44:47.150Z,2.50
2019-01-09T02:47:17.672Z,2.50
2019-01-09T02:49:47.868Z,2.50
2019-01-09T02:52:18.075Z,2.50
2019-01-09T02:54:48.465Z,2.40
2019-01-09T02:57:18.909Z,2.50
2019-01-09T02:59:49.352Z,2.50
2019-01-09T03:02:19.549Z,2.40
2019-01-09T03:04:50.056Z,2.50
2019-01-09T03:07:20.488Z,2.40
2019-01-09T03:09:50.956Z,2.40
2019-01-09T03:12:21.144Z,2.40
2019-01-09T03:14:51.432Z,2.40
2019-01-09T03:17:21.775Z,2.50
2019-01-09T03:19:52.215Z,2.50
2019-01-09T03:22:22.633Z,2.40
2019-01-09T03:24:52.996Z,2.40
2019-01-09T03:27:23.304Z,2.50
2019-01-09T03:29:53.835Z,2.50
2019-01-09T03:32:24.262Z,2.50
2019-01-09T03:34:54.818Z,2.40
2019-01-09T03:37:25.552Z,2.50
2019-01-09T03:39:56.069Z,2.50
2019-01-09T03:42:26.345Z,2.50
2019-01-09T03:44:56.685Z,2.50
2019-01-09T03:47:27.033Z,2.50
2019-01-09T03:49:57.240Z,2.50
2019-01-09T03:52:27.436Z,2.50
2019-01-09T03:54:57.725Z,2.50
2019-01-09T03:57:27.992Z,2.40
2019-01-09T03:59:58.300Z,2.40
2019-01-09T04:02:28.568Z,2.50
2019-01-09T04:04:58.919Z,2.40
2019-01-09T04:07:29.281Z,2.40
2019-01-09T04:09:59.485Z,2.40
2019-01-09T04:12:29.704Z,2.40
2019-01-09T04:15:00.514Z,2.40
2019-01-09T04:17:30.832Z,2.40
2019-01-09T04:20:01.099Z,2.40
2019-01-09T04:22:31.375Z,2.40
2019-01-09T04:25:01.660Z,2.30
2019-01-09T04:27:31.980Z,2.40
2019-01-09T04:30:02.276Z,2.40
2019-01-09T04:32:32.450Z,2.40
2019-01-09T04:35:02.652Z,2.40
2019-01-09T04:37:32.868Z,2.40
2019-01-09T04:40:03.777Z,2.40
2019-01-09T04:42:33.984Z,2.30
2019-01-09T04:45:04.737Z,2.30
2019-01-09T04:47:35.078Z,2.30
2019-01-09T04:50:06.097Z,2.30
2019-01-09T04:52:36.366Z,2.30
2019-01-09T04:55:06.741Z,2.30
2019-01-09T04:57:36.936Z,2.30
2019-01-09T05:00:08.008Z,2.30
2019-01-09T05:02:38.284Z,2.30
2019-01-09T05:05:08.563Z,2.20
2019-01-09T05:07:38.916Z,2.20
2019-01-09T05:10:09.177Z,2.20
2019-01-09T05:12:39.455Z,2.20
2019-01-09T05:15:09.744Z,2.20
2019-01-09T05:17:39.874Z,2.20
2019-01-09T05:20:10.156Z,2.20
2019-01-09T05:22:40.285Z,2.20
2019-01-09T05:25:10.676Z,2.20
2019-01-09T05:27:40.953Z,2.20
2019-01-09T05:30:11.305Z,2.20
2019-01-09T05:32:41.508Z,2.20
2019-01-09T05:35:11.648Z,2.20
2019-01-09T05:37:41.989Z,2.30
2019-01-09T05:40:12.228Z,2.30
2019-01-09T05:42:42.424Z,2.30
2019-01-09T05:45:12.769Z,2.30
2019-01-09T05:47:43.052Z,2.30
2019-01-09T05:50:13.385Z,2.30
2019-01-09T05:52:43.595Z,2.30
2019-01-09T05:55:13.943Z,2.30
2019-01-09T05:57:44.188Z,2.30
2019-01-09T06:00:14.456Z,2.20
2019-01-09T06:02:44.760Z,2.20
2019-01-09T06:05:14.884Z,2.20
2019-01-09T06:07:45.100Z,2.20
2019-01-09T06:10:15.567Z,2.20
2019-01-09T06:12:45.804Z,2.20
2019-01-09T06:15:16.021Z,2.20
2019-01-09T06:17:46.288Z,2.20
2019-01-09T06:20:16.496Z,2.30
2019-01-09T06:22:46.824Z,2.20
2019-01-09T06:25:17.190Z,2.20
2019-01-09T06:27:47.568Z,2.20
2019-01-09T06:30:17.836Z,2.30
2019-01-09T06:32:48.216Z,2.30
2019-01-09T06:35:18.585Z,2.20
2019-01-09T06:37:49.116Z,2.30
2019-01-09T06:40:19.341Z,2.30
2019-01-09T06:42:49.608Z,2.30
2019-01-09T06:45:19.890Z,2.30
2019-01-09T06:47:50.111Z,2.20
2019-01-09T06:50:20.756Z,2.20
2019-01-09T06:52:51.215Z,2.20
2019-01-09T06:55:21.457Z,2.20
2019-01-09T06:57:51.712Z,2.20
2019-01-09T07:00:22.220Z,2.20
2019-01-09T07:02:52.973Z,2.20
2019-01-09T07:05:23.128Z,2.30
2019-01-09T07:07:53.424Z,2.30
2019-01-09T07:10:25.310Z,2.30
2019-01-09T07:12:55.696Z,2.30
2019-01-09T07:15:25.901Z,2.30
2019-01-09T07:17:56.119Z,2.40
2019-01-09T07:20:26.756Z,2.40
2019-01-09T07:22:57.084Z,2.40
2019-01-09T07:25:27.352Z,2.40
2019-01-09T07:27:57.628Z,2.30
2019-01-09T07:30:27.988Z,2.40
2019-01-09T07:32:58.468Z,2.30
2019-01-09T07:35:28.936Z,2.30
2019-01-09T07:37:59.321Z,2.30
2019-01-09T07:40:29.647Z,2.30
2019-01-09T07:42:59.996Z,2.30
2019-01-09T07:45:30.304Z,2.30
2019-01-09T07:48:00.701Z,2.30
2019-01-09T07:50:30.941Z,2.30
2019-01-09T07:53:01.212Z,2.30
2019-01-09T07:55:31.432Z,2.30
2019-01-09T07:58:01.647Z,2.30
2019-01-09T08:00:31.932Z,2.30
2019-01-09T08:03:02.404Z,2.30
2019-01-09T08:05:32.630Z,2.30
2019-01-09T08:08:02.824Z,2.30
2019-01-09T08:10:33.205Z,2.30
2019-01-09T08:13:03.468Z,2.30
2019-01-09T08:15:34.124Z,2.30
2019-01-09T08:18:04.669Z,2.30
2019-01-09T08:20:34.952Z,2.30
2019-01-09T08:23:05.233Z,2.30
2019-01-09T08:25:36.456Z,2.30
2019-01-09T08:28:06.655Z,2.30
2019-01-09T08:30:36.920Z,2.40
2019-01-09T08:33:07.197Z,2.30
2019-01-09T08:35:37.692Z,2.30
2019-01-09T08:38:08.092Z,2.30
2019-01-09T08:40:38.363Z,2.30
2019-01-09T08:43:08.852Z,2.30
2019-01-09T08:45:39.044Z,2.30
2019-01-09T08:48:09.396Z,2.30
2019-01-09T08:50:39.595Z,2.30
2019-01-09T08:53:09.944Z,2.30
2019-01-09T08:55:40.485Z,2.30
2019-01-09T08:58:10.785Z,2.40
2019-01-09T09:00:41.345Z,2.40
2019-01-09T09:03:11.888Z,2.40
2019-01-09T09:05:42.277Z,2.40
2019-01-09T09:08:13.452Z,2.40
2019-01-09T09:10:43.880Z,2.40
2019-01-09T09:13:26.048Z,2.40
2019-01-09T09:15:56.277Z,2.40
2019-01-09T09:18:26.618Z,2.40
2019-01-09T09:20:56.978Z,2.50
2019-01-09T09:23:27.489Z,2.50
2019-01-09T09:25:57.912Z,2.50
2019-01-09T09:28:28.626Z,2.50
2019-01-09T09:30:58.861Z,2.50
2019-01-09T09:33:29.417Z,2.50
2019-01-09T09:35:59.721Z,2.50
2019-01-09T09:38:30.144Z,2.50
2019-01-09T09:41:00.685Z,2.50
2019-01-09T09:43:31.134Z,2.50
2019-01-09T09:46:01.520Z,2.50
2019-01-09T09:48:31.798Z,2.50
2019-01-09T09:51:01.959Z,2.60
2019-01-09T09:53:32.506Z,2.60
2019-01-09T09:56:03.206Z,2.60
2019-01-09T09:58:33.605Z,2.60
2019-01-09T10:01:04.141Z,2.60
2019-01-09T10:03:34.767Z,2.60
2019-01-09T10:06:05.273Z,2.60
2019-01-09T10:08:35.523Z,2.60
2019-01-09T10:11:06.757Z,2.60
2019-01-09T10:13:37.208Z,2.60
2019-01-09T10:16:07.549Z,2.60
2019-01-09T10:18:37.696Z,2.70
2019-01-09T10:21:08.158Z,2.70
2019-01-09T10:23:40.073Z,2.70
2019-01-09T10:26:10.352Z,2.70
2019-01-09T10:28:40.558Z,2.70
2019-01-09T10:31:10.829Z,2.70
2019-01-09T10:33:41.116Z,2.80
2019-01-09T10:36:11.760Z,2.80
2019-01-09T10:38:42.217Z,2.80
2019-01-09T10:41:12.617Z,2.80
2019-01-09T10:43:43.002Z,2.80
2019-01-09T10:46:13.333Z,2.80
2019-01-09T10:48:43.619Z,2.80
2019-01-09T10:51:14.341Z,2.80
2019-01-09T10:53:44.692Z,2.80
2019-01-09T10:56:15.201Z,2.80
2019-01-09T10:58:45.580Z,2.80
2019-01-09T11:01:15.864Z,2.80
2019-01-09T11:03:46.404Z,2.80
2019-01-09T11:06:16.685Z,2.80
2019-01-09T11:08:47.411Z,2.80
2019-01-09T11:11:17.949Z,2.80
2019-01-09T11:13:48.099Z,2.80
2019-01-09T11:16:18.456Z,2.80
2019-01-09T11:18:48.857Z,2.80
2019-01-09T11:21:19.057Z,2.80
2019-01-09T11:23:49.533Z,2.90
2019-01-09T11:26:20.069Z,2.90
2019-01-09T11:28:50.285Z,2.90
2019-01-09T11:31:20.558Z,2.90
2019-01-09T11:33:51.001Z,2.80
2019-01-09T11:36:21.585Z,2.90
2019-01-09T11:38:55.979Z,2.90
2019-01-09T11:41:24.208Z,2.90
2019-01-09T11:43:54.337Z,2.80
2019-01-09T11:46:24.864Z,2.80
2019-01-09T11:48:55.278Z,2.80
2019-01-09T11:51:25.669Z,2.90
2019-01-09T11:53:56.053Z,2.90
2019-01-09T11:56:26.320Z,2.90
2019-01-09T11:58:56.620Z,2.90
2019-01-09T12:01:26.872Z,2.90
2019-01-09T12:03:57.145Z,3.00
2019-01-09T12:06:27.493Z,3.00
2019-01-09T12:09:04.412Z,2.90
2019-01-09T12:11:30.073Z,3.00
2019-01-09T12:14:00.611Z,3.00
2019-01-09T12:16:31.001Z,3.00
2019-01-09T12:19:01.541Z,3.00
2019-01-09T12:21:31.841Z,3.00
2019-01-09T12:24:02.064Z,3.10
2019-01-09T12:26:32.615Z,3.00
2019-01-09T12:29:03.264Z,3.00
2019-01-09T12:31:33.532Z,3.00
2019-01-09T12:34:03.889Z,3.00
2019-01-09T12:36:34.301Z,3.00
2019-01-09T12:39:13.138Z,3.00
2019-01-09T12:41:38.557Z,3.00
2019-01-09T12:44:08.980Z,3.00
2019-01-09T12:46:39.505Z,3.00
2019-01-09T12:49:09.737Z,3.00
2019-01-09T12:51:40.209Z,2.90
2019-01-09T12:54:10.601Z,3.00
2019-01-09T12:56:41.173Z,2.90
2019-01-09T12:59:11.676Z,2.90
2019-01-09T13:01:42.073Z,2.90
2019-01-09T13:04:12.289Z,3.00
2019-01-09T13:06:42.610Z,2.90
2019-01-09T13:09:21.836Z,2.90
2019-01-09T13:11:45.103Z,3.00
2019-01-09T13:14:15.481Z,3.00
2019-01-09T13:16:47.889Z,2.90
2019-01-09T13:19:17.868Z,2.90
2019-01-09T13:21:48.313Z,2.90
2019-01-09T13:24:18.797Z,2.90
2019-01-09T13:26:49.164Z,2.90
2019-01-09T13:29:19.449Z,2.90
2019-01-09T13:31:49.800Z,2.90
2019-01-09T13:34:20.286Z,2.80
2019-01-09T13:36:50.553Z,2.80
2019-01-09T13:39:20.704Z,2.70
2019-01-09T13:41:51.537Z,2.70
2019-01-09T13:44:21.881Z,2.80
2019-01-09T13:46:52.170Z,2.70
2019-01-09T13:49:23.099Z,2.70
2019-01-09T13:51:53.377Z,2.70
2019-01-09T13:54:23.720Z,2.70
2019-01-09T13:56:54.064Z,2.70
2019-01-09T13:59:24.344Z,2.70
2019-01-09T14:01:54.692Z,2.70
2019-01-09T14:04:25.061Z,2.70
2019-01-09T14:06:55.361Z,2.70
2019-01-09T14:09:25.833Z,2.70
2019-01-09T14:11:56.044Z,2.60
2019-01-09T14:14:26.597Z,2.70
2019-01-09T14:16:57.120Z,2.60
2019-01-09T14:19:27.433Z,2.60
2019-01-09T14:21:57.781Z,2.60
2019-01-09T14:24:28.220Z,2.60
2019-01-09T14:26:58.420Z,2.50
2019-01-09T14:29:28.720Z,2.50
2019-01-09T14:31:58.902Z,2.50
2019-01-09T14:34:29.201Z,2.50
2019-01-09T14:36:59.537Z,2.40
2019-01-09T14:39:29.908Z,2.50
2019-01-09T14:42:00.316Z,2.40
2019-01-09T14:44:30.749Z,2.40
2019-01-09T14:47:01.192Z,2.40
2019-01-09T14:49:31.349Z,2.40
2019-01-09T14:52:01.821Z,2.40
2019-01-09T14:54:32.032Z,2.40
2019-01-09T14:57:02.327Z,2.30
2019-01-09T14:59:32.696Z,2.40
2019-01-09T15:02:03.362Z,2.30
2019-01-09T15:04:33.834Z,2.30
2019-01-09T15:07:04.468Z,2.30
2019-01-09T15:09:34.833Z,2.30
2019-01-09T15:12:05.340Z,2.20
2019-01-09T15:14:35.727Z,2.20
2019-01-09T15:17:06.201Z,2.20
2019-01-09T15:19:36.756Z,2.20
2019-01-09T15:22:07.345Z,2.20
2019-01-09T15:24:37.718Z,2.20
2019-01-09T15:27:07.945Z,2.20
2019-01-09T15:29:38.450Z,2.20
2019-01-09T15:32:08.746Z,2.20
2019-01-09T15:34:39.044Z,2.20
2019-01-09T15:37:09.476Z,2.10
2019-01-09T15:39:39.921Z,2.10
2019-01-09T15:42:10.281Z,2.20
2019-01-09T15:44:40.578Z,2.10
2019-01-09T15:47:10.937Z,2.20
2019-01-09T15:49:41.407Z,2.10
2019-01-09T15:52:11.833Z,2.10
2019-01-09T15:54:42.036Z,2.00
2019-01-09T15:57:12.304Z,2.10
2019-01-09T15:59:42.693Z,2.00
2019-01-09T16:02:13.041Z,2.00
2019-01-09T16:04:43.317Z,2.00
2019-01-09T16:07:13.523Z,2.00
2019-01-09T16:09:43.893Z,2.00
2019-01-09T16:12:14.165Z,2.00
2019-01-09T16:14:44.470Z,2.00
2019-01-09T16:17:14.745Z,2.00
2019-01-09T16:19:45.137Z,2.00
2019-01-09T16:22:15.508Z,2.00
2019-01-09T16:24:45.881Z,2.00
2019-01-09T16:27:16.205Z,2.00
2019-01-09T16:29:46.404Z,2.00
2019-01-09T16:32:16.684Z,2.00
2019-01-09T16:34:47.061Z,1.90
2019-01-09T16:37:17.536Z,1.90
2019-01-09T16:39:47.813Z,2.00
2019-01-09T16:42:18.370Z,1.90
2019-01-09T16:44:48.845Z,1.90
2019-01-09T16:47:19.230Z,1.90
2019-01-09T16:49:49.850Z,1.90
2019-01-09T16:52:20.324Z,1.90
2019-01-09T16:54:50.929Z,1.90
2019-01-09T16:57:21.273Z,1.90
2019-01-09T16:59:51.675Z,1.90
2019-01-09T17:02:21.945Z,1.80
2019-01-09T17:04:52.344Z,1.80
2019-01-09T17:07:22.688Z,1.80
2019-01-09T17:09:53.028Z,1.80
2019-01-09T17:12:23.721Z,1.80
2019-01-09T17:14:53.996Z,1.80
2019-01-09T17:17:24.349Z,1.80
2019-01-09T17:19:54.624Z,1.80
2019-01-09T17:22:24.981Z,1.80
2019-01-09T17:24:55.253Z,1.80
2019-01-09T17:27:25.594Z,1.80
2019-01-09T17:29:55.881Z,1.80
2019-01-09T17:32:26.243Z,1.70
2019-01-09T17:34:57.134Z,1.70
2019-01-09T17:37:27.597Z,1.70
2019-01-09T17:39:57.957Z,1.70
2019-01-09T17:42:28.312Z,1.70
2019-01-09T17:44:58.705Z,1.70
2019-01-09T17:47:28.997Z,1.70
2019-01-09T17:49:59.338Z,1.70
2019-01-09T17:52:29.681Z,1.70
2019-01-09T17:55:00.054Z,1.70
2019-01-09T17:57:30.437Z,1.70
2019-01-09T18:00:00.861Z,1.70
2019-01-09T18:02:31.137Z,1.70
2019-01-09T18:05:01.437Z,1.70
2019-01-09T18:07:31.976Z,1.60
2019-01-09T18:10:02.517Z,1.70
2019-01-09T18:12:32.885Z,1.60
2019-01-09T18:15:04.008Z,1.70
2019-01-09T18:17:34.458Z,1.60
2019-01-09T18:20:07.949Z,1.70
2019-01-09T18:22:38.364Z,1.70
2019-01-09T18:25:14.194Z,1.80
2019-01-09T18:27:45.106Z,1.70
2019-01-09T18:30:33.985Z,1.80
2019-01-09T18:33:10.033Z,1.80
2019-01-09T18:35:49.353Z,1.80
2019-01-09T18:38:39.060Z,1.80
2019-01-09T18:41:18.667Z,1.80
2019-01-09T18:44:00.949Z,1.80
2019-01-09T18:46:34.325Z,1.70
2019-01-09T18:49:20.253Z,1.70
2019-01-09T18:52:17.108Z,1.70
2019-01-09T18:54:47.537Z,1.70
2019-01-09T18:57:17.805Z,1.60
2019-01-09T18:59:48.333Z,1.60
2019-01-09T19:02:18.789Z,1.70
2019-01-09T19:04:49.711Z,1.60
2019-01-09T19:07:20.471Z,1.70
2019-01-09T19:09:51.089Z,1.70
2019-01-09T19:12:21.373Z,1.70
2019-01-09T19:14:51.924Z,1.70
2019-01-09T19:17:22.385Z,1.70
2019-01-09T19:19:52.714Z,1.60
2019-01-09T19:22:23.221Z,1.60
2019-01-09T19:24:53.720Z,1.60
2019-01-09T19:27:24.365Z,1.60
2019-01-09T19:29:54.649Z,1.50
2019-01-09T19:32:25.168Z,1.50
2019-01-09T19:34:55.509Z,1.50
2019-01-09T19:37:26.051Z,1.50
2019-01-09T19:39:57.529Z,1.50
2019-01-09T19:42:27.949Z,1.50
2019-01-09T19:44:58.306Z,1.40
2019-01-09T19:47:28.897Z,1.40
2019-01-09T19:49:59.414Z,1.40
2019-01-09T19:52:29.965Z,1.40
2019-01-09T19:55:00.603Z,1.40
2019-01-09T19:57:30.985Z,1.40
2019-01-09T20:00:02.002Z,1.40
2019-01-09T20:02:32.365Z,1.40
2019-01-09T20:05:02.633Z,1.40
2019-01-09T20:07:32.997Z,1.40
2019-01-09T20:10:04.468Z,1.40
2019-01-09T20:12:34.923Z,1.40
2019-01-09T20:15:08.385Z,1.50
2019-01-09T20:17:38.734Z,1.40
2019-01-09T20:20:15.409Z,1.50
2019-01-09T20:22:46.365Z,1.50
2019-01-09T20:25:17.052Z,1.50
2019-01-09T20:27:47.427Z,1.40
2019-01-09T20:30:26.362Z,1.40
2019-01-09T20:32:56.831Z,1.50
2019-01-09T20:35:28.315Z,1.50
2019-01-09T20:37:58.602Z,1.50
2019-01-09T20:40:28.977Z,1.50
2019-01-09T20:42:59.337Z,1.50
2019-01-09T20:45:29.754Z,1.50
2019-01-09T20:48:00.275Z,1.60
2019-01-09T20:50:30.912Z,1.50
2019-01-09T20:53:01.746Z,1.50
2019-01-09T20:55:32.106Z,1.50
2019-01-09T20:58:02.687Z,1.50
2019-01-09T21:00:33.198Z,1.50
2019-01-09T21:03:03.761Z,1.40
2019-01-09T21:05:36.918Z,1.40
2019-01-09T21:08:07.898Z,1.50
2019-01-09T21:10:38.288Z,1.50
2019-01-09T21:13:08.692Z,1.50
2019-01-09T21:15:38.985Z,1.50
2019-01-09T21:18:09.379Z,1.60
2019-01-09T21:20:39.826Z,1.50
2019-01-09T21:23:10.576Z,1.50
2019-01-09T21:25:40.997Z,1.50
2019-01-09T21:28:11.333Z,1.50
2019-01-09T21:30:41.889Z,1.50
2019-01-09T21:33:12.773Z,1.50
2019-01-09T21:35:43.122Z,1.50
2019-01-09T21:38:13.504Z,1.50
2019-01-09T21:40:43.816Z,1.50
2019-01-09T21:43:14.193Z,1.40
2019-01-09T21:45:45.068Z,1.40
2019-01-09T21:48:15.891Z,1.40
2019-01-09T21:50:46.318Z,1.30
2019-01-09T21:53:17.277Z,1.40
2019-01-09T21:55:47.864Z,1.30
2019-01-09T21:58:18.388Z,1.30
2019-01-09T22:00:48.660Z,1.30
2019-01-09T22:03:18.907Z,1.30
2019-01-09T22:05:49.316Z,1.30
2019-01-09T22:08:19.758Z,1.30
2019-01-09T22:10:50.468Z,1.20
2019-01-09T22:13:21.034Z,1.20
2019-01-09T22:15:51.455Z,1.20
2019-01-09T22:18:21.830Z,1.20
2019-01-09T22:20:52.204Z,1.10
2019-01-09T22:23:23.759Z,1.10
2019-01-09T22:25:54.292Z,1.10
2019-01-09T22:28:24.806Z,1.10
2019-01-09T22:30:55.251Z,1.10
2019-01-09T22:33:25.685Z,1.10
2019-01-09T22:35:56.134Z,1.10
2019-01-09T22:38:26.425Z,1.10
2019-01-09T22:40:56.806Z,1.00
2019-01-09T22:43:27.279Z,1.00
2019-01-09T22:45:57.646Z,1.00
2019-01-09T22:48:27.938Z,1.00
2019-01-09T22:50:58.303Z,1.00
2019-01-09T22:53:28.746Z,1.00
2019-01-09T22:55:59.146Z,1.00
2019-01-09T22:58:29.427Z,1.00
2019-01-09T23:01:00.544Z,1.00
2019-01-09T23:03:30.924Z,1.00
2019-01-09T23:06:01.383Z,1.00
2019-01-09T23:08:31.773Z,1.00
2019-01-09T23:11:02.163Z,1.00
2019-01-09T23:13:32.655Z,1.10
2019-01-09T23:16:03.817Z,1.10
2019-01-09T23:18:34.342Z,1.10
2019-01-09T23:21:05.078Z,1.10
2019-01-09T23:23:35.542Z,1.10
2019-01-09T23:26:06.237Z,1.10
2019-01-09T23:28:36.671Z,1.10
2019-01-09T23:31:07.234Z,1.10
2019-01-09T23:33:37.615Z,1.10
2019-01-09T23:36:08.843Z,1.10
2019-01-09T23:38:39.379Z,1.10
2019-01-09T23:41:09.855Z,1.10
2019-01-09T23:43:40.231Z,1.10
2019-01-09T23:46:10.527Z,1.10
2019-01-09T23:48:40.894Z,1.00
2019-01-09T23:51:12.278Z,1.10
2019-01-09T23:53:42.707Z,1.10
2019-01-09T23:56:13.145Z,1.10
2019-01-09T23:58:43.586Z,1.10
